sensor_id;sensor_type;location;lat;lon;timestamp;pressure;altitude;pressure_sealevel;temperature;humidity
40954;BME280;26686;50.130;8.710;2023-03-16T00:03:10;100696.56;;;3.99;62.59
40954;BME280;26686;50.130;8.710;2023-03-16T00:08:13;100693.75;;;4.04;62.31
40954;BME280;26686;50.130;8.710;2023-03-16T00:13:16;100705.28;;;4.01;62.36
40954;BME280;26686;50.130;8.710;2023-03-16T00:18:18;100687.47;;;3.87;62.89
40954;BME280;26686;50.130;8.710;2023-03-16T00:23:20;100694.97;;;3.97;63.42
40954;BME280;26686;50.130;8.710;2023-03-16T00:28:30;100692.47;;;3.94;63.62
40954;BME280;26686;50.130;8.710;2023-03-16T00:33:35;100685.91;;;3.83;64.31
40954;BME280;26686;50.130;8.710;2023-03-16T00:38:40;100676.06;;;3.87;64.20
40954;BME280;26686;50.130;8.710;2023-03-16T00:43:45;100666.94;;;3.75;64.84
40954;BME280;26686;50.130;8.710;2023-03-16T00:48:48;100674.06;;;3.73;65.62
40954;BME280;26686;50.130;8.710;2023-03-16T00:53:51;100666.53;;;3.65;66.24
40954;BME280;26686;50.130;8.710;2023-03-16T00:58:53;100658.19;;;3.56;66.96
40954;BME280;26686;50.130;8.710;2023-03-16T01:03:58;100673.91;;;3.57;67.11
40954;BME280;26686;50.130;8.710;2023-03-16T01:09:02;100668.00;;;3.52;67.75
40954;BME280;26686;50.130;8.710;2023-03-16T01:14:05;100659.13;;;3.54;67.45
40954;BME280;26686;50.130;8.710;2023-03-16T01:19:07;100671.63;;;3.49;67.70
40954;BME280;26686;50.130;8.710;2023-03-16T01:24:08;100678.59;;;3.50;67.91
40954;BME280;26686;50.130;8.710;2023-03-16T01:29:10;100668.06;;;3.50;67.88
40954;BME280;26686;50.130;8.710;2023-03-16T01:34:12;100661.81;;;3.53;67.78
40954;BME280;26686;50.130;8.710;2023-03-16T01:39:18;100663.44;;;3.56;67.68
40954;BME280;26686;50.130;8.710;2023-03-16T01:44:26;100656.22;;;3.61;68.13
40954;BME280;26686;50.130;8.710;2023-03-16T01:49:33;100655.97;;;3.46;68.45
40954;BME280;26686;50.130;8.710;2023-03-16T01:54:42;100647.28;;;3.44;68.13
40954;BME280;26686;50.130;8.710;2023-03-16T02:00:02;100641.56;;;3.34;68.62
40954;BME280;26686;50.130;8.710;2023-03-16T02:05:20;100631.25;;;3.30;68.81
40954;BME280;26686;50.130;8.710;2023-03-16T02:10:24;100631.97;;;3.33;68.82
40954;BME280;26686;50.130;8.710;2023-03-16T02:15:28;100637.44;;;3.29;68.88
40954;BME280;26686;50.130;8.710;2023-03-16T02:20:47;100635.72;;;3.28;68.96
40954;BME280;26686;50.130;8.710;2023-03-16T02:31:00;100636.06;;;3.20;69.45
40954;BME280;26686;50.130;8.710;2023-03-16T02:36:02;100615.44;;;3.11;69.75
40954;BME280;26686;50.130;8.710;2023-03-16T02:41:13;100612.19;;;3.04;70.22
40954;BME280;26686;50.130;8.710;2023-03-16T02:46:15;100596.56;;;3.01;70.10
40954;BME280;26686;50.130;8.710;2023-03-16T02:51:18;100590.44;;;3.00;70.21
40954;BME280;26686;50.130;8.710;2023-03-16T02:56:19;100589.84;;;2.94;70.74
40954;BME280;26686;50.130;8.710;2023-03-16T03:01:22;100591.56;;;2.95;70.94
40954;BME280;26686;50.130;8.710;2023-03-16T03:06:24;100586.31;;;2.95;70.21
40954;BME280;26686;50.130;8.710;2023-03-16T03:11:25;100575.91;;;2.92;70.07
40954;BME280;26686;50.130;8.710;2023-03-16T03:16:27;100568.09;;;2.90;70.05
40954;BME280;26686;50.130;8.710;2023-03-16T03:21:28;100580.19;;;2.94;70.16
40954;BME280;26686;50.130;8.710;2023-03-16T03:26:30;100579.59;;;2.88;70.13
40954;BME280;26686;50.130;8.710;2023-03-16T03:31:31;100579.72;;;2.85;70.04
40954;BME280;26686;50.130;8.710;2023-03-16T03:36:33;100579.16;;;2.78;70.17
40954;BME280;26686;50.130;8.710;2023-03-16T03:41:35;100581.97;;;2.73;70.29
40954;BME280;26686;50.130;8.710;2023-03-16T03:46:36;100583.72;;;2.73;70.60
40954;BME280;26686;50.130;8.710;2023-03-16T03:51:38;100589.31;;;2.65;70.66
40954;BME280;26686;50.130;8.710;2023-03-16T03:56:41;100573.81;;;2.59;70.79
40954;BME280;26686;50.130;8.710;2023-03-16T04:01:42;100589.59;;;2.59;70.88
40954;BME280;26686;50.130;8.710;2023-03-16T04:06:45;100594.06;;;2.57;70.98
40954;BME280;26686;50.130;8.710;2023-03-16T04:11:47;100573.09;;;2.55;70.86
40954;BME280;26686;50.130;8.710;2023-03-16T04:16:48;100570.50;;;2.54;70.75
40954;BME280;26686;50.130;8.710;2023-03-16T04:21:50;100581.97;;;2.53;70.87
40954;BME280;26686;50.130;8.710;2023-03-16T04:26:51;100566.00;;;2.57;70.85
40954;BME280;26686;50.130;8.710;2023-03-16T04:31:54;100562.47;;;2.58;70.82
40954;BME280;26686;50.130;8.710;2023-03-16T04:36:55;100568.81;;;2.53;71.08
40954;BME280;26686;50.130;8.710;2023-03-16T04:41:57;100550.50;;;2.51;70.73
40954;BME280;26686;50.130;8.710;2023-03-16T04:46:58;100539.38;;;2.44;71.29
40954;BME280;26686;50.130;8.710;2023-03-16T04:52:00;100551.66;;;2.44;71.43
40954;BME280;26686;50.130;8.710;2023-03-16T04:57:02;100553.38;;;2.45;71.63
40954;BME280;26686;50.130;8.710;2023-03-16T05:02:04;100552.63;;;2.41;71.65
40954;BME280;26686;50.130;8.710;2023-03-16T05:07:05;100556.97;;;2.42;71.41
40954;BME280;26686;50.130;8.710;2023-03-16T05:12:07;100548.31;;;2.40;71.50
40954;BME280;26686;50.130;8.710;2023-03-16T05:17:08;100558.69;;;2.43;71.48
40954;BME280;26686;50.130;8.710;2023-03-16T05:22:10;100545.75;;;2.39;71.89
40954;BME280;26686;50.130;8.710;2023-03-16T05:27:11;100551.66;;;2.44;71.87
40954;BME280;26686;50.130;8.710;2023-03-16T05:32:12;100550.75;;;2.45;71.65
40954;BME280;26686;50.130;8.710;2023-03-16T05:37:14;100557.75;;;2.44;71.73
40954;BME280;26686;50.130;8.710;2023-03-16T05:42:15;100558.44;;;2.50;71.72
40954;BME280;26686;50.130;8.710;2023-03-16T05:47:17;100547.19;;;2.46;71.71
40954;BME280;26686;50.130;8.710;2023-03-16T05:52:18;100541.09;;;2.45;71.85
40954;BME280;26686;50.130;8.710;2023-03-16T05:57:19;100547.53;;;2.59;71.73
40954;BME280;26686;50.130;8.710;2023-03-16T06:02:21;100542.28;;;2.59;71.90
40954;BME280;26686;50.130;8.710;2023-03-16T06:07:22;100529.78;;;2.64;71.90
40954;BME280;26686;50.130;8.710;2023-03-16T06:12:24;100522.97;;;2.60;72.33
40954;BME280;26686;50.130;8.710;2023-03-16T06:17:26;100531.16;;;2.73;71.86
40954;BME280;26686;50.130;8.710;2023-03-16T06:22:27;100540.50;;;2.80;71.60
40954;BME280;26686;50.130;8.710;2023-03-16T06:27:30;100544.63;;;2.86;71.59
40954;BME280;26686;50.130;8.710;2023-03-16T06:32:31;100542.84;;;3.07;71.79
40954;BME280;26686;50.130;8.710;2023-03-16T06:37:33;100540.28;;;3.24;70.59
40954;BME280;26686;50.130;8.710;2023-03-16T06:42:34;100551.09;;;3.37;70.31
40954;BME280;26686;50.130;8.710;2023-03-16T06:47:36;100545.41;;;3.46;69.67
40954;BME280;26686;50.130;8.710;2023-03-16T06:52:37;100532.63;;;3.58;69.63
40954;BME280;26686;50.130;8.710;2023-03-16T06:57:39;100560.13;;;3.88;68.79
40954;BME280;26686;50.130;8.710;2023-03-16T07:02:42;100558.31;;;4.08;68.20
40954;BME280;26686;50.130;8.710;2023-03-16T07:07:46;100533.94;;;4.22;68.07
40954;BME280;26686;50.130;8.710;2023-03-16T07:12:48;100545.47;;;4.54;66.95
40954;BME280;26686;50.130;8.710;2023-03-16T07:17:50;100547.97;;;4.75;66.55
40954;BME280;26686;50.130;8.710;2023-03-16T07:22:52;100558.34;;;4.78;66.58
40954;BME280;26686;50.130;8.710;2023-03-16T07:27:54;100546.81;;;4.81;65.58
40954;BME280;26686;50.130;8.710;2023-03-16T07:32:55;100559.53;;;5.06;65.88
40954;BME280;26686;50.130;8.710;2023-03-16T07:37:57;100554.06;;;5.26;65.34
40954;BME280;26686;50.130;8.710;2023-03-16T07:42:58;100564.34;;;5.48;64.13
40954;BME280;26686;50.130;8.710;2023-03-16T07:48:01;100552.25;;;5.60;63.77
40954;BME280;26686;50.130;8.710;2023-03-16T07:53:03;100559.75;;;5.84;63.17
40954;BME280;26686;50.130;8.710;2023-03-16T07:58:05;100556.28;;;5.99;62.65
40954;BME280;26686;50.130;8.710;2023-03-16T08:03:07;100549.34;;;6.13;62.28
40954;BME280;26686;50.130;8.710;2023-03-16T08:08:08;100547.75;;;6.41;61.67
40954;BME280;26686;50.130;8.710;2023-03-16T08:13:10;100550.44;;;6.55;59.84
40954;BME280;26686;50.130;8.710;2023-03-16T08:18:11;100546.31;;;6.65;59.71
40954;BME280;26686;50.130;8.710;2023-03-16T08:23:12;100542.38;;;6.72;59.68
40954;BME280;26686;50.130;8.710;2023-03-16T08:28:16;100548.59;;;6.86;59.11
40954;BME280;26686;50.130;8.710;2023-03-16T08:33:18;100525.38;;;7.05;58.51
40954;BME280;26686;50.130;8.710;2023-03-16T08:38:23;100526.69;;;7.27;58.17
40954;BME280;26686;50.130;8.710;2023-03-16T08:43:25;100517.88;;;7.41;57.25
40954;BME280;26686;50.130;8.710;2023-03-16T08:48:27;100526.66;;;7.70;56.78
40954;BME280;26686;50.130;8.710;2023-03-16T08:53:28;100522.41;;;7.81;56.12
40954;BME280;26686;50.130;8.710;2023-03-16T08:58:31;100520.03;;;8.18;55.33
40954;BME280;26686;50.130;8.710;2023-03-16T09:03:33;100512.34;;;8.40;54.49
40954;BME280;26686;50.130;8.710;2023-03-16T09:08:36;100485.97;;;8.52;53.36
40954;BME280;26686;50.130;8.710;2023-03-16T09:13:40;100505.41;;;8.91;53.35
40954;BME280;26686;50.130;8.710;2023-03-16T09:18:42;100511.53;;;9.30;52.92
40954;BME280;26686;50.130;8.710;2023-03-16T09:23:43;100512.09;;;9.59;50.98
40954;BME280;26686;50.130;8.710;2023-03-16T09:28:45;100501.44;;;9.96;50.41
40954;BME280;26686;50.130;8.710;2023-03-16T09:33:47;100497.44;;;10.26;48.91
40954;BME280;26686;50.130;8.710;2023-03-16T09:38:48;100486.59;;;10.76;48.71
40954;BME280;26686;50.130;8.710;2023-03-16T09:49:22;100474.50;;;11.17;46.70
40954;BME280;26686;50.130;8.710;2023-03-16T09:59:33;100471.34;;;11.23;46.60
40954;BME280;26686;50.130;8.710;2023-03-16T10:09:56;100472.59;;;12.39;44.13
40954;BME280;26686;50.130;8.710;2023-03-16T10:15:21;100471.72;;;12.81;43.07
40954;BME280;26686;50.130;8.710;2023-03-16T10:20:26;100477.09;;;13.72;40.93
40954;BME280;26686;50.130;8.710;2023-03-16T10:25:40;100471.31;;;14.74;38.29
40954;BME280;26686;50.130;8.710;2023-03-16T10:30:44;100464.56;;;14.50;38.41
40954;BME280;26686;50.130;8.710;2023-03-16T10:35:55;100466.44;;;14.11;39.53
40954;BME280;26686;50.130;8.710;2023-03-16T10:41:00;100460.94;;;14.22;39.13
40954;BME280;26686;50.130;8.710;2023-03-16T10:46:01;100464.75;;;14.10;39.33
40954;BME280;26686;50.130;8.710;2023-03-16T10:51:07;100451.78;;;13.66;40.59
40954;BME280;26686;50.130;8.710;2023-03-16T10:56:19;100447.28;;;15.48;36.87
40954;BME280;26686;50.130;8.710;2023-03-16T11:01:24;100435.88;;;18.15;32.35
40954;BME280;26686;50.130;8.710;2023-03-16T11:06:31;100438.94;;;20.03;29.75
40954;BME280;26686;50.130;8.710;2023-03-16T11:11:33;100435.84;;;20.06;29.73
40954;BME280;26686;50.130;8.710;2023-03-16T11:16:42;100442.53;;;20.87;28.78
40954;BME280;26686;50.130;8.710;2023-03-16T11:22:23;100424.47;;;22.40;25.74
40954;BME280;26686;50.130;8.710;2023-03-16T11:27:25;100397.75;;;24.56;23.51
40954;BME280;26686;50.130;8.710;2023-03-16T11:32:38;100401.91;;;24.85;23.19
40954;BME280;26686;50.130;8.710;2023-03-16T11:38:07;100398.13;;;25.76;21.72
40954;BME280;26686;50.130;8.710;2023-03-16T11:43:23;100388.97;;;24.47;22.94
40954;BME280;26686;50.130;8.710;2023-03-16T11:53:50;100386.81;;;23.42;24.27
40954;BME280;26686;50.130;8.710;2023-03-16T12:15:16;100353.03;;;19.52;29.71
40954;BME280;26686;50.130;8.710;2023-03-16T12:20:23;100364.13;;;18.38;31.38
40954;BME280;26686;50.130;8.710;2023-03-16T12:25:32;100351.59;;;17.14;33.10
40954;BME280;26686;50.130;8.710;2023-03-16T12:35:47;100344.19;;;16.65;34.44
40954;BME280;26686;50.130;8.710;2023-03-16T12:40:53;100328.78;;;17.35;33.78
40954;BME280;26686;50.130;8.710;2023-03-16T12:46:13;100321.06;;;17.73;33.11
40954;BME280;26686;50.130;8.710;2023-03-16T12:51:16;100326.78;;;17.37;33.70
40954;BME280;26686;50.130;8.710;2023-03-16T12:56:27;100318.97;;;16.92;34.38
40954;BME280;26686;50.130;8.710;2023-03-16T13:01:38;100300.22;;;20.86;28.96
40954;BME280;26686;50.130;8.710;2023-03-16T13:06:49;100285.25;;;25.27;24.02
40954;BME280;26686;50.130;8.710;2023-03-16T13:11:51;100275.81;;;22.57;26.57
40954;BME280;26686;50.130;8.710;2023-03-16T13:17:02;100283.47;;;18.77;31.05
40954;BME280;26686;50.130;8.710;2023-03-16T13:22:28;100277.66;;;18.00;32.61
40954;BME280;26686;50.130;8.710;2023-03-16T13:27:32;100264.03;;;17.85;33.45
40954;BME280;26686;50.130;8.710;2023-03-16T13:32:34;100253.56;;;18.15;33.05
40954;BME280;26686;50.130;8.710;2023-03-16T13:37:37;100253.13;;;18.75;32.08
40954;BME280;26686;50.130;8.710;2023-03-16T13:42:46;100256.56;;;20.59;29.75
40954;BME280;26686;50.130;8.710;2023-03-16T13:47:48;100254.50;;;21.84;27.92
40954;BME280;26686;50.130;8.710;2023-03-16T13:52:59;100237.72;;;21.67;27.47
40954;BME280;26686;50.130;8.710;2023-03-16T13:58:04;100246.63;;;19.61;30.49
40954;BME280;26686;50.130;8.710;2023-03-16T14:03:15;100245.34;;;18.88;31.97
40954;BME280;26686;50.130;8.710;2023-03-16T14:08:22;100231.44;;;18.68;31.80
40954;BME280;26686;50.130;8.710;2023-03-16T14:18:37;100220.97;;;16.87;34.90
40954;BME280;26686;50.130;8.710;2023-03-16T14:23:43;100214.81;;;16.09;36.67
40954;BME280;26686;50.130;8.710;2023-03-16T14:29:04;100199.13;;;15.44;37.00
40954;BME280;26686;50.130;8.710;2023-03-16T14:34:34;100195.41;;;15.00;38.25
40954;BME280;26686;50.130;8.710;2023-03-16T14:39:35;100193.34;;;14.76;39.10
40954;BME280;26686;50.130;8.710;2023-03-16T14:44:37;100187.31;;;14.46;39.42
40954;BME280;26686;50.130;8.710;2023-03-16T14:49:39;100192.69;;;14.19;40.02
40954;BME280;26686;50.130;8.710;2023-03-16T14:54:43;100175.19;;;13.96;40.63
40954;BME280;26686;50.130;8.710;2023-03-16T14:59:44;100168.13;;;13.95;40.69
40954;BME280;26686;50.130;8.710;2023-03-16T15:04:47;100158.03;;;13.79;40.88
40954;BME280;26686;50.130;8.710;2023-03-16T15:09:50;100156.53;;;13.77;41.08
40954;BME280;26686;50.130;8.710;2023-03-16T15:14:52;100155.78;;;13.85;40.82
40954;BME280;26686;50.130;8.710;2023-03-16T15:20:17;100156.00;;;13.64;41.21
40954;BME280;26686;50.130;8.710;2023-03-16T15:25:39;100160.84;;;13.40;41.22
40954;BME280;26686;50.130;8.710;2023-03-16T15:30:42;100135.41;;;13.17;41.19
40954;BME280;26686;50.130;8.710;2023-03-16T15:35:46;100135.13;;;13.10;41.72
40954;BME280;26686;50.130;8.710;2023-03-16T15:40:49;100130.09;;;12.97;42.19
40954;BME280;26686;50.130;8.710;2023-03-16T15:45:51;100129.50;;;12.94;42.56
40954;BME280;26686;50.130;8.710;2023-03-16T15:51:22;100127.25;;;12.89;42.40
40954;BME280;26686;50.130;8.710;2023-03-16T15:56:28;100134.31;;;12.70;42.95
40954;BME280;26686;50.130;8.710;2023-03-16T16:01:41;100125.16;;;12.53;43.24
40954;BME280;26686;50.130;8.710;2023-03-16T16:06:47;100130.63;;;12.52;43.13
40954;BME280;26686;50.130;8.710;2023-03-16T16:11:49;100124.97;;;12.35;43.54
40954;BME280;26686;50.130;8.710;2023-03-16T16:16:51;100115.69;;;12.20;43.75
40954;BME280;26686;50.130;8.710;2023-03-16T16:21:54;100114.88;;;12.19;44.06
40954;BME280;26686;50.130;8.710;2023-03-16T16:26:56;100106.53;;;12.13;44.19
40954;BME280;26686;50.130;8.710;2023-03-16T16:31:57;100108.38;;;12.02;44.57
40954;BME280;26686;50.130;8.710;2023-03-16T16:36:59;100102.84;;;11.94;44.85
40954;BME280;26686;50.130;8.710;2023-03-16T16:42:00;100108.00;;;11.86;44.85
40954;BME280;26686;50.130;8.710;2023-03-16T16:47:02;100109.34;;;11.71;45.19
40954;BME280;26686;50.130;8.710;2023-03-16T16:52:04;100099.19;;;11.55;45.48
40954;BME280;26686;50.130;8.710;2023-03-16T16:57:14;100102.00;;;11.53;46.29
40954;BME280;26686;50.130;8.710;2023-03-16T17:02:24;100099.41;;;11.42;46.41
40954;BME280;26686;50.130;8.710;2023-03-16T17:07:28;100104.16;;;11.38;46.85
40954;BME280;26686;50.130;8.710;2023-03-16T17:12:29;100097.84;;;11.18;47.28
40954;BME280;26686;50.130;8.710;2023-03-16T17:17:31;100093.91;;;11.12;47.54
40954;BME280;26686;50.130;8.710;2023-03-16T17:22:33;100098.47;;;11.01;48.09
40954;BME280;26686;50.130;8.710;2023-03-16T17:27:34;100092.50;;;10.87;48.55
40954;BME280;26686;50.130;8.710;2023-03-16T17:32:36;100089.75;;;10.77;48.67
40954;BME280;26686;50.130;8.710;2023-03-16T17:37:37;100094.50;;;10.74;48.83
40954;BME280;26686;50.130;8.710;2023-03-16T17:42:39;100073.50;;;10.59;48.99
40954;BME280;26686;50.130;8.710;2023-03-16T17:47:41;100097.31;;;10.61;49.69
40954;BME280;26686;50.130;8.710;2023-03-16T17:52:43;100089.84;;;10.55;49.52
40954;BME280;26686;50.130;8.710;2023-03-16T17:57:46;100086.88;;;10.48;49.81
40954;BME280;26686;50.130;8.710;2023-03-16T18:02:49;100087.00;;;10.47;49.88
40954;BME280;26686;50.130;8.710;2023-03-16T18:07:55;100087.50;;;10.40;49.88
40954;BME280;26686;50.130;8.710;2023-03-16T18:13:04;100082.66;;;10.34;50.13
40954;BME280;26686;50.130;8.710;2023-03-16T18:18:06;100077.56;;;10.31;50.03
40954;BME280;26686;50.130;8.710;2023-03-16T18:23:19;100065.28;;;10.19;50.15
40954;BME280;26686;50.130;8.710;2023-03-16T18:28:21;100067.72;;;10.11;50.39
40954;BME280;26686;50.130;8.710;2023-03-16T18:33:57;100080.41;;;10.18;50.70
40954;BME280;26686;50.130;8.710;2023-03-16T18:39:02;100076.91;;;10.18;51.50
40954;BME280;26686;50.130;8.710;2023-03-16T18:44:16;100078.94;;;10.25;51.50
40954;BME280;26686;50.130;8.710;2023-03-16T18:49:28;100084.00;;;10.29;50.33
40954;BME280;26686;50.130;8.710;2023-03-16T18:54:32;100081.09;;;10.20;50.39
40954;BME280;26686;50.130;8.710;2023-03-16T18:59:35;100073.16;;;10.09;50.06
40954;BME280;26686;50.130;8.710;2023-03-16T19:04:37;100083.06;;;10.07;50.43
40954;BME280;26686;50.130;8.710;2023-03-16T19:09:38;100053.63;;;9.87;50.26
40954;BME280;26686;50.130;8.710;2023-03-16T19:14:39;100078.28;;;9.89;49.94
40954;BME280;26686;50.130;8.710;2023-03-16T19:19:41;100074.06;;;9.87;49.90
40954;BME280;26686;50.130;8.710;2023-03-16T19:24:53;100077.78;;;9.84;50.22
40954;BME280;26686;50.130;8.710;2023-03-16T19:29:56;100077.59;;;9.76;50.16
40954;BME280;26686;50.130;8.710;2023-03-16T19:34:58;100070.31;;;9.78;50.33
40954;BME280;26686;50.130;8.710;2023-03-16T19:39:59;100068.28;;;9.70;50.03
40954;BME280;26686;50.130;8.710;2023-03-16T19:45:03;100060.91;;;9.63;50.28
40954;BME280;26686;50.130;8.710;2023-03-16T19:50:17;100062.72;;;9.62;50.53
40954;BME280;26686;50.130;8.710;2023-03-16T19:55:21;100057.19;;;9.54;50.74
40954;BME280;26686;50.130;8.710;2023-03-16T20:00:24;100062.84;;;9.49;50.92
40954;BME280;26686;50.130;8.710;2023-03-16T20:05:28;100057.91;;;9.45;50.89
40954;BME280;26686;50.130;8.710;2023-03-16T20:10:30;100061.66;;;9.42;50.96
40954;BME280;26686;50.130;8.710;2023-03-16T20:15:34;100050.53;;;9.37;50.89
40954;BME280;26686;50.130;8.710;2023-03-16T20:20:35;100049.09;;;9.33;50.92
40954;BME280;26686;50.130;8.710;2023-03-16T20:25:37;100040.41;;;9.31;51.31
40954;BME280;26686;50.130;8.710;2023-03-16T20:30:38;100042.56;;;9.26;51.13
40954;BME280;26686;50.130;8.710;2023-03-16T20:35:40;100027.59;;;9.13;51.69
40954;BME280;26686;50.130;8.710;2023-03-16T20:40:43;100039.16;;;9.12;51.56
40954;BME280;26686;50.130;8.710;2023-03-16T20:45:45;100019.03;;;9.10;51.69
40954;BME280;26686;50.130;8.710;2023-03-16T20:50:47;100022.25;;;9.02;52.09
40954;BME280;26686;50.130;8.710;2023-03-16T20:55:51;100032.63;;;9.05;52.19
40954;BME280;26686;50.130;8.710;2023-03-16T21:00:55;100028.78;;;8.98;52.25
40954;BME280;26686;50.130;8.710;2023-03-16T21:06:01;100029.16;;;8.93;52.46
40954;BME280;26686;50.130;8.710;2023-03-16T21:11:02;100020.44;;;8.91;52.31
40954;BME280;26686;50.130;8.710;2023-03-16T21:16:04;100002.56;;;8.82;52.69
40954;BME280;26686;50.130;8.710;2023-03-16T21:21:11;100007.06;;;8.81;52.70
40954;BME280;26686;50.130;8.710;2023-03-16T21:26:19;100005.59;;;8.77;52.90
40954;BME280;26686;50.130;8.710;2023-03-16T21:31:21;100016.44;;;8.74;53.19
40954;BME280;26686;50.130;8.710;2023-03-16T21:36:24;100011.13;;;8.74;53.12
40954;BME280;26686;50.130;8.710;2023-03-16T21:41:26;100006.06;;;8.71;52.84
40954;BME280;26686;50.130;8.710;2023-03-16T21:46:28;100013.75;;;8.63;53.59
40954;BME280;26686;50.130;8.710;2023-03-16T21:51:30;100002.31;;;8.62;53.42
40954;BME280;26686;50.130;8.710;2023-03-16T21:56:32;100000.94;;;8.57;53.58
40954;BME280;26686;50.130;8.710;2023-03-16T22:01:35;99994.53;;;8.48;53.54
40954;BME280;26686;50.130;8.710;2023-03-16T22:06:45;99987.44;;;8.48;53.63
40954;BME280;26686;50.130;8.710;2023-03-16T22:11:46;99969.09;;;8.45;53.79
40954;BME280;26686;50.130;8.710;2023-03-16T22:16:48;99978.94;;;8.43;53.68
40954;BME280;26686;50.130;8.710;2023-03-16T22:21:49;99975.09;;;8.36;54.04
40954;BME280;26686;50.130;8.710;2023-03-16T22:26:52;99981.81;;;8.40;54.19
40954;BME280;26686;50.130;8.710;2023-03-16T22:32:00;99972.63;;;8.33;54.17
40954;BME280;26686;50.130;8.710;2023-03-16T22:37:04;99964.34;;;8.38;54.11
40954;BME280;26686;50.130;8.710;2023-03-16T22:47:21;99940.94;;;8.31;54.31
40954;BME280;26686;50.130;8.710;2023-03-16T22:52:27;99956.97;;;8.30;54.10
40954;BME280;26686;50.130;8.710;2023-03-16T22:57:30;99954.53;;;8.27;54.63
40954;BME280;26686;50.130;8.710;2023-03-16T23:02:32;99943.22;;;8.25;53.95
40954;BME280;26686;50.130;8.710;2023-03-16T23:07:33;99952.25;;;8.22;54.38
40954;BME280;26686;50.130;8.710;2023-03-16T23:12:34;99947.16;;;8.19;54.46
40954;BME280;26686;50.130;8.710;2023-03-16T23:17:36;99942.94;;;8.17;54.51
40954;BME280;26686;50.130;8.710;2023-03-16T23:22:37;99933.31;;;8.16;54.34
40954;BME280;26686;50.130;8.710;2023-03-16T23:27:41;99937.31;;;8.21;54.55
40954;BME280;26686;50.130;8.710;2023-03-16T23:32:43;99934.03;;;8.18;54.50
40954;BME280;26686;50.130;8.710;2023-03-16T23:37:45;99941.88;;;8.19;54.25
40954;BME280;26686;50.130;8.710;2023-03-16T23:42:47;99923.66;;;8.14;54.60
40954;BME280;26686;50.130;8.710;2023-03-16T23:47:50;99922.13;;;8.23;54.51
40954;BME280;26686;50.130;8.710;2023-03-16T23:52:53;99915.59;;;8.16;54.17
40954;BME280;26686;50.130;8.710;2023-03-16T23:57:55;99912.94;;;8.16;54.40
